25еместо

0

0
0

Не обновленная информация по URFF

Информация о погоде за 2017 год почему то ?

Аэропорт: [URFF] Симферополь. Симферополь
METAR:
2017/05/02 11:30
URFF 021130Z 03006MPS CAVOK 25/10 Q1016 R01/010095 NOSIG

Vladimir, 16.10.2018, 13:26
Статус идеи: ожидает рассмотрения

Комментарии

У идеи нет комментариев

Оставить комментарий